Portada
METAR-TAF:

METAR-TAF

Aeroports :

Beirut, Líban

latitud: 33-49N, longitud: 035-29E, altitud: 29 m

Observació

L'informe es va fer fa 15 minuts, a les 22:00 UTC
Vent 6 kt del Sud/Sud-Est
Temperatura 27°C
Humitat 74%
Pressió 1009 hPa
Visibilitat 10 km o més
Núvols disperses a una alçada de 2400 ft

METAR: OLBA 152200Z 15006KT 9999 SCT024 27/22 Q1009 NOSIG

Hora: 01:15 (22:15 UTC)

Pronòstic

L'informe es va fer fa 6 hores i 15 minuts, a les 16:00 UTC
Pronòstic vàlid del 15 a les 18 UTC al 16 a les 24 UTC
Vent 8 kt del Sud
Visibilitat 10 km o més
Escasses núvols a una alçada de 2600 ft
Evolucionant progressivament
l' 16 a les 06 UTC al 16 a les 09 UTC
Vent 10 kt del Sud-Oest
Visibilitat: 8000 m
Núvols disperses a una alçada de 2600 ft
Temporalment
l' 16 a les 06 UTC al 16 a les 18 UTC
Visibilitat: 6000 m
Cel ennuvolat a una alçada de 2600 ft

TAF: OLBA 151600Z 1518/1624 19008KT 9999 FEW026 BECMG 1606/1609 22010KT 8000 SCT026 TEMPO 1606/1618 6000 BKN026

Observacions i pronòstics meteorològics de més de 4000 aeroports (METAR i TAF).

Les estacions disponibles són els punts grocs i vermells al mapa.

Posi el ratolí al punt desitjat per veure el nom de l'estació.

Feu clic per veure les observacions i els pronòstics meteorològics.

Per canviar el mapa: feu clic els botons verds amb una creu de color negre per apropar; al botó verd amb un guió per allunyar la imatge; o en les fletxes verdes per a mapes adjacents.


METAR-TAF: